sensor_id;sensor_type;location;lat;lon;timestamp;P1;durP1;ratioP1;P2;durP2;ratioP2
77105;SDS011;66057;54.718;18.426;2023-04-09T00:01:10;11.68;;;5.97;;
77105;SDS011;66057;54.718;18.426;2023-04-09T00:03:36;14.48;;;6.32;;
77105;SDS011;66057;54.718;18.426;2023-04-09T00:06:03;11.93;;;5.75;;
77105;SDS011;66057;54.718;18.426;2023-04-09T00:08:29;12.70;;;5.70;;
77105;SDS011;66057;54.718;18.426;2023-04-09T00:10:56;14.98;;;6.53;;
77105;SDS011;66057;54.718;18.426;2023-04-09T00:13:22;11.85;;;5.13;;
77105;SDS011;66057;54.718;18.426;2023-04-09T00:15:48;12.40;;;5.40;;
77105;SDS011;66057;54.718;18.426;2023-04-09T00:18:14;6.65;;;4.28;;
77105;SDS011;66057;54.718;18.426;2023-04-09T00:20:43;10.50;;;4.70;;
77105;SDS011;66057;54.718;18.426;2023-04-09T00:23:09;9.05;;;4.38;;
77105;SDS011;66057;54.718;18.426;2023-04-09T00:25:35;9.90;;;6.47;;
77105;SDS011;66057;54.718;18.426;2023-04-09T00:28:01;5.60;;;3.33;;
77105;SDS011;66057;54.718;18.426;2023-04-09T00:30:30;10.73;;;5.78;;
77105;SDS011;66057;54.718;18.426;2023-04-09T00:32:56;10.52;;;5.10;;
77105;SDS011;66057;54.718;18.426;2023-04-09T00:35:22;7.05;;;5.13;;
77105;SDS011;66057;54.718;18.426;2023-04-09T00:37:48;7.65;;;5.05;;
77105;SDS011;66057;54.718;18.426;2023-04-09T00:40:14;8.82;;;3.35;;
77105;SDS011;66057;54.718;18.426;2023-04-09T00:42:40;11.13;;;5.38;;
77105;SDS011;66057;54.718;18.426;2023-04-09T00:45:06;12.45;;;5.15;;
77105;SDS011;66057;54.718;18.426;2023-04-09T00:47:33;10.10;;;5.72;;
77105;SDS011;66057;54.718;18.426;2023-04-09T00:50:00;9.18;;;4.20;;
77105;SDS011;66057;54.718;18.426;2023-04-09T00:52:26;8.88;;;5.50;;
77105;SDS011;66057;54.718;18.426;2023-04-09T00:54:54;8.75;;;3.80;;
77105;SDS011;66057;54.718;18.426;2023-04-09T00:57:21;9.52;;;5.07;;
77105;SDS011;66057;54.718;18.426;2023-04-09T00:59:47;16.25;;;5.65;;
77105;SDS011;66057;54.718;18.426;2023-04-09T01:02:12;7.15;;;4.47;;
77105;SDS011;66057;54.718;18.426;2023-04-09T01:04:39;13.85;;;5.40;;
77105;SDS011;66057;54.718;18.426;2023-04-09T01:07:22;5.93;;;4.38;;
77105;SDS011;66057;54.718;18.426;2023-04-09T01:12:45;10.02;;;5.72;;
77105;SDS011;66057;54.718;18.426;2023-04-09T01:15:24;11.65;;;5.13;;
77105;SDS011;66057;54.718;18.426;2023-04-09T01:18:37;9.73;;;5.18;;
77105;SDS011;66057;54.718;18.426;2023-04-09T01:21:11;7.22;;;4.32;;
77105;SDS011;66057;54.718;18.426;2023-04-09T01:29:21;11.05;;;5.28;;
77105;SDS011;66057;54.718;18.426;2023-04-09T01:31:49;11.40;;;4.97;;
77105;SDS011;66057;54.718;18.426;2023-04-09T01:34:17;10.35;;;5.07;;
77105;SDS011;66057;54.718;18.426;2023-04-09T01:36:49;9.05;;;4.07;;
77105;SDS011;66057;54.718;18.426;2023-04-09T01:39:18;7.93;;;2.80;;
77105;SDS011;66057;54.718;18.426;2023-04-09T01:41:45;13.52;;;5.07;;
77105;SDS011;66057;54.718;18.426;2023-04-09T01:44:12;8.65;;;4.72;;
77105;SDS011;66057;54.718;18.426;2023-04-09T01:46:38;12.88;;;4.55;;
77105;SDS011;66057;54.718;18.426;2023-04-09T01:49:05;10.10;;;4.30;;
77105;SDS011;66057;54.718;18.426;2023-04-09T01:51:32;12.13;;;6.07;;
77105;SDS011;66057;54.718;18.426;2023-04-09T01:53:58;11.77;;;5.10;;
77105;SDS011;66057;54.718;18.426;2023-04-09T01:56:24;11.45;;;5.78;;
77105;SDS011;66057;54.718;18.426;2023-04-09T01:58:50;8.82;;;4.20;;
77105;SDS011;66057;54.718;18.426;2023-04-09T02:01:51;10.23;;;4.50;;
77105;SDS011;66057;54.718;18.426;2023-04-09T02:09:32;10.50;;;4.28;;
77105;SDS011;66057;54.718;18.426;2023-04-09T02:12:02;11.85;;;5.65;;
77105;SDS011;66057;54.718;18.426;2023-04-09T02:14:31;13.07;;;5.50;;
77105;SDS011;66057;54.718;18.426;2023-04-09T02:16:58;12.80;;;5.18;;
77105;SDS011;66057;54.718;18.426;2023-04-09T02:19:36;11.77;;;4.57;;
77105;SDS011;66057;54.718;18.426;2023-04-09T02:22:03;9.48;;;5.55;;
77105;SDS011;66057;54.718;18.426;2023-04-09T02:24:30;11.07;;;4.53;;
77105;SDS011;66057;54.718;18.426;2023-04-09T02:26:55;9.50;;;4.53;;
77105;SDS011;66057;54.718;18.426;2023-04-09T02:29:22;9.27;;;4.97;;
77105;SDS011;66057;54.718;18.426;2023-04-09T02:31:47;9.93;;;4.35;;
77105;SDS011;66057;54.718;18.426;2023-04-09T02:34:15;9.00;;;5.25;;
77105;SDS011;66057;54.718;18.426;2023-04-09T02:36:41;8.00;;;3.97;;
77105;SDS011;66057;54.718;18.426;2023-04-09T02:39:07;11.30;;;4.75;;
77105;SDS011;66057;54.718;18.426;2023-04-09T02:41:33;6.50;;;3.08;;
77105;SDS011;66057;54.718;18.426;2023-04-09T02:43:58;9.20;;;3.72;;
77105;SDS011;66057;54.718;18.426;2023-04-09T02:46:24;15.73;;;6.13;;
77105;SDS011;66057;54.718;18.426;2023-04-09T02:48:53;10.20;;;5.35;;
77105;SDS011;66057;54.718;18.426;2023-04-09T02:51:20;7.72;;;4.25;;
77105;SDS011;66057;54.718;18.426;2023-04-09T02:53:46;7.53;;;4.03;;
77105;SDS011;66057;54.718;18.426;2023-04-09T02:56:11;6.75;;;4.50;;
77105;SDS011;66057;54.718;18.426;2023-04-09T02:58:37;11.68;;;5.03;;
77105;SDS011;66057;54.718;18.426;2023-04-09T03:01:03;8.43;;;5.25;;
77105;SDS011;66057;54.718;18.426;2023-04-09T03:03:29;12.55;;;6.43;;
77105;SDS011;66057;54.718;18.426;2023-04-09T03:05:55;12.70;;;3.75;;
77105;SDS011;66057;54.718;18.426;2023-04-09T03:08:21;9.02;;;4.93;;
77105;SDS011;66057;54.718;18.426;2023-04-09T03:10:47;12.32;;;5.88;;
77105;SDS011;66057;54.718;18.426;2023-04-09T03:13:13;8.68;;;4.80;;
77105;SDS011;66057;54.718;18.426;2023-04-09T03:15:38;13.05;;;5.78;;
77105;SDS011;66057;54.718;18.426;2023-04-09T03:18:04;11.57;;;5.05;;
77105;SDS011;66057;54.718;18.426;2023-04-09T03:20:30;9.93;;;4.47;;
77105;SDS011;66057;54.718;18.426;2023-04-09T03:22:56;12.60;;;5.85;;
77105;SDS011;66057;54.718;18.426;2023-04-09T03:25:21;11.45;;;5.45;;
77105;SDS011;66057;54.718;18.426;2023-04-09T03:27:47;15.75;;;5.82;;
77105;SDS011;66057;54.718;18.426;2023-04-09T03:30:13;9.63;;;4.93;;
77105;SDS011;66057;54.718;18.426;2023-04-09T03:32:39;11.05;;;4.53;;
77105;SDS011;66057;54.718;18.426;2023-04-09T03:35:05;8.07;;;4.82;;
77105;SDS011;66057;54.718;18.426;2023-04-09T03:37:31;13.38;;;5.20;;
77105;SDS011;66057;54.718;18.426;2023-04-09T03:39:56;12.02;;;5.22;;
77105;SDS011;66057;54.718;18.426;2023-04-09T03:42:22;10.02;;;5.15;;
77105;SDS011;66057;54.718;18.426;2023-04-09T03:44:47;8.48;;;4.93;;
77105;SDS011;66057;54.718;18.426;2023-04-09T03:47:13;15.73;;;5.00;;
77105;SDS011;66057;54.718;18.426;2023-04-09T03:49:39;11.75;;;4.72;;
77105;SDS011;66057;54.718;18.426;2023-04-09T03:52:05;9.18;;;5.03;;
77105;SDS011;66057;54.718;18.426;2023-04-09T03:54:31;9.48;;;5.03;;
77105;SDS011;66057;54.718;18.426;2023-04-09T03:56:57;9.50;;;5.68;;
77105;SDS011;66057;54.718;18.426;2023-04-09T03:59:23;10.68;;;4.60;;
77105;SDS011;66057;54.718;18.426;2023-04-09T04:01:49;16.77;;;5.97;;
77105;SDS011;66057;54.718;18.426;2023-04-09T04:04:14;11.93;;;5.32;;
77105;SDS011;66057;54.718;18.426;2023-04-09T04:06:40;11.63;;;5.25;;
77105;SDS011;66057;54.718;18.426;2023-04-09T04:09:06;8.90;;;4.43;;
77105;SDS011;66057;54.718;18.426;2023-04-09T04:11:32;7.03;;;4.88;;
77105;SDS011;66057;54.718;18.426;2023-04-09T04:13:57;12.10;;;4.47;;
77105;SDS011;66057;54.718;18.426;2023-04-09T04:16:23;8.55;;;4.43;;
77105;SDS011;66057;54.718;18.426;2023-04-09T04:18:48;14.23;;;4.85;;
77105;SDS011;66057;54.718;18.426;2023-04-09T04:21:15;9.20;;;4.90;;
77105;SDS011;66057;54.718;18.426;2023-04-09T04:23:41;7.60;;;3.42;;
77105;SDS011;66057;54.718;18.426;2023-04-09T04:26:07;11.57;;;4.90;;
77105;SDS011;66057;54.718;18.426;2023-04-09T04:28:37;7.03;;;4.03;;
77105;SDS011;66057;54.718;18.426;2023-04-09T04:31:07;8.32;;;4.32;;
77105;SDS011;66057;54.718;18.426;2023-04-09T04:33:36;5.13;;;3.05;;
77105;SDS011;66057;54.718;18.426;2023-04-09T04:36:07;9.30;;;4.45;;
77105;SDS011;66057;54.718;18.426;2023-04-09T04:38:34;11.90;;;5.45;;
77105;SDS011;66057;54.718;18.426;2023-04-09T04:41:01;9.60;;;4.97;;
77105;SDS011;66057;54.718;18.426;2023-04-09T04:43:27;8.27;;;4.53;;
77105;SDS011;66057;54.718;18.426;2023-04-09T04:45:53;10.23;;;4.35;;
77105;SDS011;66057;54.718;18.426;2023-04-09T04:48:19;13.85;;;5.35;;
77105;SDS011;66057;54.718;18.426;2023-04-09T04:50:45;7.47;;;4.80;;
77105;SDS011;66057;54.718;18.426;2023-04-09T04:53:10;11.48;;;6.10;;
77105;SDS011;66057;54.718;18.426;2023-04-09T04:55:36;20.10;;;7.72;;
77105;SDS011;66057;54.718;18.426;2023-04-09T04:58:03;25.48;;;7.85;;
77105;SDS011;66057;54.718;18.426;2023-04-09T05:00:30;14.68;;;8.02;;
77105;SDS011;66057;54.718;18.426;2023-04-09T05:02:56;13.05;;;5.82;;
77105;SDS011;66057;54.718;18.426;2023-04-09T05:05:22;12.23;;;6.93;;
77105;SDS011;66057;54.718;18.426;2023-04-09T05:07:47;12.07;;;6.35;;
77105;SDS011;66057;54.718;18.426;2023-04-09T05:10:13;10.50;;;6.05;;
77105;SDS011;66057;54.718;18.426;2023-04-09T05:12:38;8.45;;;5.47;;
77105;SDS011;66057;54.718;18.426;2023-04-09T05:15:05;9.23;;;5.07;;
77105;SDS011;66057;54.718;18.426;2023-04-09T05:17:31;8.07;;;5.10;;
77105;SDS011;66057;54.718;18.426;2023-04-09T05:19:57;9.10;;;6.55;;
77105;SDS011;66057;54.718;18.426;2023-04-09T05:22:23;9.90;;;5.43;;
77105;SDS011;66057;54.718;18.426;2023-04-09T05:24:49;10.93;;;6.63;;
77105;SDS011;66057;54.718;18.426;2023-04-09T05:27:15;9.45;;;5.30;;
77105;SDS011;66057;54.718;18.426;2023-04-09T05:29:43;11.93;;;5.32;;
77105;SDS011;66057;54.718;18.426;2023-04-09T05:32:09;15.20;;;7.63;;
77105;SDS011;66057;54.718;18.426;2023-04-09T05:34:35;11.88;;;6.22;;
77105;SDS011;66057;54.718;18.426;2023-04-09T05:37:01;11.35;;;6.35;;
77105;SDS011;66057;54.718;18.426;2023-04-09T05:39:27;10.50;;;6.32;;
77105;SDS011;66057;54.718;18.426;2023-04-09T05:41:54;10.00;;;5.18;;
77105;SDS011;66057;54.718;18.426;2023-04-09T05:44:24;6.00;;;3.83;;
77105;SDS011;66057;54.718;18.426;2023-04-09T05:46:53;6.45;;;3.42;;
77105;SDS011;66057;54.718;18.426;2023-04-09T05:49:23;7.22;;;3.22;;
77105;SDS011;66057;54.718;18.426;2023-04-09T05:51:49;7.25;;;2.78;;
77105;SDS011;66057;54.718;18.426;2023-04-09T05:54:17;3.83;;;1.90;;
77105;SDS011;66057;54.718;18.426;2023-04-09T05:56:43;3.85;;;2.80;;
77105;SDS011;66057;54.718;18.426;2023-04-09T05:59:09;10.57;;;2.67;;
77105;SDS011;66057;54.718;18.426;2023-04-09T06:01:35;8.57;;;3.20;;
77105;SDS011;66057;54.718;18.426;2023-04-09T06:04:03;4.38;;;3.30;;
77105;SDS011;66057;54.718;18.426;2023-04-09T06:06:30;3.28;;;2.13;;
77105;SDS011;66057;54.718;18.426;2023-04-09T06:08:57;6.05;;;3.70;;
77105;SDS011;66057;54.718;18.426;2023-04-09T06:11:22;6.20;;;2.60;;
77105;SDS011;66057;54.718;18.426;2023-04-09T06:13:48;1.60;;;1.50;;
77105;SDS011;66057;54.718;18.426;2023-04-09T06:16:14;3.90;;;2.08;;
77105;SDS011;66057;54.718;18.426;2023-04-09T06:18:40;5.85;;;2.65;;
77105;SDS011;66057;54.718;18.426;2023-04-09T06:21:07;7.25;;;3.80;;
77105;SDS011;66057;54.718;18.426;2023-04-09T06:23:34;7.85;;;3.30;;
77105;SDS011;66057;54.718;18.426;2023-04-09T06:26:01;6.03;;;2.60;;
77105;SDS011;66057;54.718;18.426;2023-04-09T06:28:31;4.28;;;2.58;;
77105;SDS011;66057;54.718;18.426;2023-04-09T06:30:58;9.35;;;2.63;;
77105;SDS011;66057;54.718;18.426;2023-04-09T06:33:24;7.43;;;1.95;;
77105;SDS011;66057;54.718;18.426;2023-04-09T06:35:50;6.18;;;2.20;;
77105;SDS011;66057;54.718;18.426;2023-04-09T06:38:16;5.75;;;2.20;;
77105;SDS011;66057;54.718;18.426;2023-04-09T06:40:42;5.05;;;2.25;;
77105;SDS011;66057;54.718;18.426;2023-04-09T06:43:09;5.57;;;2.75;;
77105;SDS011;66057;54.718;18.426;2023-04-09T06:45:34;3.75;;;1.88;;
77105;SDS011;66057;54.718;18.426;2023-04-09T06:48:02;4.70;;;1.85;;
77105;SDS011;66057;54.718;18.426;2023-04-09T06:50:28;8.00;;;2.95;;
77105;SDS011;66057;54.718;18.426;2023-04-09T06:52:54;9.27;;;2.80;;
77105;SDS011;66057;54.718;18.426;2023-04-09T06:55:20;4.57;;;2.55;;
77105;SDS011;66057;54.718;18.426;2023-04-09T06:57:46;6.25;;;2.38;;
77105;SDS011;66057;54.718;18.426;2023-04-09T07:00:12;7.90;;;3.30;;
77105;SDS011;66057;54.718;18.426;2023-04-09T07:02:38;6.63;;;3.03;;
77105;SDS011;66057;54.718;18.426;2023-04-09T07:05:04;12.38;;;3.10;;
77105;SDS011;66057;54.718;18.426;2023-04-09T07:07:30;3.67;;;2.47;;
77105;SDS011;66057;54.718;18.426;2023-04-09T07:09:56;6.93;;;2.70;;
77105;SDS011;66057;54.718;18.426;2023-04-09T07:12:26;6.57;;;3.20;;
77105;SDS011;66057;54.718;18.426;2023-04-09T07:14:58;6.30;;;2.22;;
77105;SDS011;66057;54.718;18.426;2023-04-09T07:17:24;8.23;;;2.75;;
77105;SDS011;66057;54.718;18.426;2023-04-09T07:19:50;5.90;;;2.15;;
77105;SDS011;66057;54.718;18.426;2023-04-09T07:22:16;2.53;;;1.77;;
77105;SDS011;66057;54.718;18.426;2023-04-09T07:24:42;6.32;;;2.28;;
77105;SDS011;66057;54.718;18.426;2023-04-09T07:27:08;6.25;;;2.60;;
77105;SDS011;66057;54.718;18.426;2023-04-09T07:29:35;4.43;;;2.50;;
77105;SDS011;66057;54.718;18.426;2023-04-09T07:32:01;8.95;;;2.33;;
77105;SDS011;66057;54.718;18.426;2023-04-09T07:34:27;4.28;;;2.38;;
77105;SDS011;66057;54.718;18.426;2023-04-09T07:36:53;4.80;;;1.40;;
77105;SDS011;66057;54.718;18.426;2023-04-09T07:39:19;2.70;;;1.95;;
77105;SDS011;66057;54.718;18.426;2023-04-09T07:41:46;3.75;;;2.00;;
77105;SDS011;66057;54.718;18.426;2023-04-09T07:44:12;2.75;;;1.63;;
77105;SDS011;66057;54.718;18.426;2023-04-09T07:46:38;3.35;;;1.48;;
77105;SDS011;66057;54.718;18.426;2023-04-09T07:49:05;4.35;;;1.65;;
77105;SDS011;66057;54.718;18.426;2023-04-09T07:51:31;2.63;;;1.20;;
77105;SDS011;66057;54.718;18.426;2023-04-09T07:53:57;5.53;;;1.95;;
77105;SDS011;66057;54.718;18.426;2023-04-09T07:56:23;3.85;;;1.20;;
77105;SDS011;66057;54.718;18.426;2023-04-09T07:58:48;2.13;;;1.23;;
77105;SDS011;66057;54.718;18.426;2023-04-09T08:01:15;2.40;;;1.13;;
77105;SDS011;66057;54.718;18.426;2023-04-09T08:03:41;3.90;;;1.38;;
77105;SDS011;66057;54.718;18.426;2023-04-09T08:06:07;1.65;;;1.00;;
77105;SDS011;66057;54.718;18.426;2023-04-09T08:08:33;8.50;;;1.27;;
77105;SDS011;66057;54.718;18.426;2023-04-09T08:11:00;2.92;;;1.83;;
77105;SDS011;66057;54.718;18.426;2023-04-09T08:13:25;8.52;;;2.72;;
77105;SDS011;66057;54.718;18.426;2023-04-09T08:15:51;3.72;;;1.40;;
77105;SDS011;66057;54.718;18.426;2023-04-09T08:18:17;4.15;;;1.50;;
77105;SDS011;66057;54.718;18.426;2023-04-09T08:20:43;3.35;;;1.63;;
77105;SDS011;66057;54.718;18.426;2023-04-09T08:23:11;5.95;;;1.23;;
77105;SDS011;66057;54.718;18.426;2023-04-09T08:25:37;2.05;;;1.50;;
77105;SDS011;66057;54.718;18.426;2023-04-09T08:28:03;2.38;;;1.45;;
77105;SDS011;66057;54.718;18.426;2023-04-09T08:30:29;1.70;;;1.15;;
77105;SDS011;66057;54.718;18.426;2023-04-09T08:32:58;5.15;;;1.60;;
77105;SDS011;66057;54.718;18.426;2023-04-09T08:35:25;2.30;;;1.45;;
77105;SDS011;66057;54.718;18.426;2023-04-09T08:37:53;4.90;;;1.58;;
77105;SDS011;66057;54.718;18.426;2023-04-09T08:40:20;5.03;;;1.77;;
77105;SDS011;66057;54.718;18.426;2023-04-09T08:42:46;5.22;;;1.55;;
77105;SDS011;66057;54.718;18.426;2023-04-09T08:45:21;5.72;;;1.70;;
77105;SDS011;66057;54.718;18.426;2023-04-09T08:47:47;2.55;;;1.58;;
77105;SDS011;66057;54.718;18.426;2023-04-09T08:50:14;7.40;;;1.92;;
77105;SDS011;66057;54.718;18.426;2023-04-09T08:52:40;4.07;;;1.83;;
77105;SDS011;66057;54.718;18.426;2023-04-09T08:55:07;3.85;;;1.90;;
77105;SDS011;66057;54.718;18.426;2023-04-09T08:57:39;5.03;;;1.60;;
77105;SDS011;66057;54.718;18.426;2023-04-09T09:00:05;5.35;;;1.85;;
77105;SDS011;66057;54.718;18.426;2023-04-09T09:02:32;3.67;;;1.80;;
77105;SDS011;66057;54.718;18.426;2023-04-09T09:04:58;5.05;;;1.80;;
77105;SDS011;66057;54.718;18.426;2023-04-09T09:07:27;3.55;;;1.40;;
77105;SDS011;66057;54.718;18.426;2023-04-09T09:09:57;4.15;;;1.65;;
77105;SDS011;66057;54.718;18.426;2023-04-09T09:12:30;5.82;;;2.45;;
77105;SDS011;66057;54.718;18.426;2023-04-09T09:14:56;4.63;;;2.67;;
77105;SDS011;66057;54.718;18.426;2023-04-09T09:17:22;8.90;;;4.63;;
77105;SDS011;66057;54.718;18.426;2023-04-09T09:19:48;6.85;;;1.85;;
77105;SDS011;66057;54.718;18.426;2023-04-09T09:22:13;5.25;;;2.10;;
77105;SDS011;66057;54.718;18.426;2023-04-09T09:24:46;4.07;;;1.65;;
77105;SDS011;66057;54.718;18.426;2023-04-09T09:30:04;4.55;;;1.90;;
77105;SDS011;66057;54.718;18.426;2023-04-09T09:32:34;3.17;;;1.58;;
77105;SDS011;66057;54.718;18.426;2023-04-09T09:35:01;4.82;;;1.52;;
77105;SDS011;66057;54.718;18.426;2023-04-09T09:37:31;1.73;;;1.25;;
77105;SDS011;66057;54.718;18.426;2023-04-09T09:39:57;3.40;;;1.58;;
77105;SDS011;66057;54.718;18.426;2023-04-09T09:42:24;5.57;;;1.55;;
77105;SDS011;66057;54.718;18.426;2023-04-09T09:44:54;3.90;;;1.70;;
77105;SDS011;66057;54.718;18.426;2023-04-09T09:47:20;5.40;;;1.48;;
77105;SDS011;66057;54.718;18.426;2023-04-09T09:52:14;5.07;;;1.50;;
77105;SDS011;66057;54.718;18.426;2023-04-09T09:54:41;2.88;;;1.48;;
77105;SDS011;66057;54.718;18.426;2023-04-09T09:57:08;6.07;;;1.38;;
77105;SDS011;66057;54.718;18.426;2023-04-09T09:59:42;5.10;;;1.45;;
77105;SDS011;66057;54.718;18.426;2023-04-09T10:02:18;3.45;;;1.40;;
77105;SDS011;66057;54.718;18.426;2023-04-09T10:04:46;1.80;;;1.00;;
77105;SDS011;66057;54.718;18.426;2023-04-09T10:07:14;4.03;;;1.73;;
77105;SDS011;66057;54.718;18.426;2023-04-09T10:09:41;4.90;;;2.05;;
77105;SDS011;66057;54.718;18.426;2023-04-09T10:12:12;2.78;;;1.50;;
77105;SDS011;66057;54.718;18.426;2023-04-09T10:14:38;3.45;;;1.33;;
77105;SDS011;66057;54.718;18.426;2023-04-09T10:17:04;4.22;;;1.48;;
77105;SDS011;66057;54.718;18.426;2023-04-09T10:19:31;3.15;;;1.67;;
77105;SDS011;66057;54.718;18.426;2023-04-09T10:22:04;2.55;;;1.45;;
77105;SDS011;66057;54.718;18.426;2023-04-09T10:24:36;3.67;;;1.42;;
77105;SDS011;66057;54.718;18.426;2023-04-09T10:27:08;2.58;;;1.55;;
77105;SDS011;66057;54.718;18.426;2023-04-09T10:29:35;3.47;;;1.33;;
77105;SDS011;66057;54.718;18.426;2023-04-09T10:32:07;2.25;;;1.13;;
77105;SDS011;66057;54.718;18.426;2023-04-09T10:34:34;2.72;;;1.10;;
77105;SDS011;66057;54.718;18.426;2023-04-09T10:37:05;3.83;;;1.02;;
77105;SDS011;66057;54.718;18.426;2023-04-09T10:39:50;8.15;;;1.05;;
77105;SDS011;66057;54.718;18.426;2023-04-09T10:42:17;3.95;;;1.40;;
77105;SDS011;66057;54.718;18.426;2023-04-09T10:45:07;5.18;;;1.10;;
77105;SDS011;66057;54.718;18.426;2023-04-09T10:47:35;2.92;;;1.33;;
77105;SDS011;66057;54.718;18.426;2023-04-09T10:50:35;2.30;;;1.45;;
77105;SDS011;66057;54.718;18.426;2023-04-09T10:52:57;1.67;;;1.13;;
77105;SDS011;66057;54.718;18.426;2023-04-09T10:55:35;3.45;;;1.13;;
77105;SDS011;66057;54.718;18.426;2023-04-09T10:58:05;2.40;;;1.17;;
77105;SDS011;66057;54.718;18.426;2023-04-09T11:00:36;10.82;;;1.77;;
77105;SDS011;66057;54.718;18.426;2023-04-09T11:05:50;0.95;;;0.90;;
77105;SDS011;66057;54.718;18.426;2023-04-09T11:08:17;2.20;;;1.20;;
77105;SDS011;66057;54.718;18.426;2023-04-09T11:10:44;2.08;;;1.17;;
77105;SDS011;66057;54.718;18.426;2023-04-09T11:13:12;7.53;;;1.50;;
77105;SDS011;66057;54.718;18.426;2023-04-09T11:15:39;2.63;;;0.60;;
77105;SDS011;66057;54.718;18.426;2023-04-09T11:18:05;3.13;;;1.45;;
77105;SDS011;66057;54.718;18.426;2023-04-09T11:20:38;2.25;;;0.95;;
77105;SDS011;66057;54.718;18.426;2023-04-09T11:23:04;2.60;;;1.10;;
77105;SDS011;66057;54.718;18.426;2023-04-09T11:25:31;5.22;;;1.50;;
77105;SDS011;66057;54.718;18.426;2023-04-09T11:27:58;1.92;;;1.38;;
77105;SDS011;66057;54.718;18.426;2023-04-09T11:30:24;6.30;;;0.88;;
77105;SDS011;66057;54.718;18.426;2023-04-09T11:32:50;2.90;;;1.30;;
77105;SDS011;66057;54.718;18.426;2023-04-09T11:35:18;2.33;;;1.23;;
77105;SDS011;66057;54.718;18.426;2023-04-09T11:37:45;3.20;;;1.42;;
77105;SDS011;66057;54.718;18.426;2023-04-09T11:40:20;3.35;;;1.15;;
77105;SDS011;66057;54.718;18.426;2023-04-09T11:42:50;3.60;;;1.38;;
77105;SDS011;66057;54.718;18.426;2023-04-09T11:45:29;2.00;;;1.08;;
77105;SDS011;66057;54.718;18.426;2023-04-09T11:47:58;3.22;;;1.13;;
77105;SDS011;66057;54.718;18.426;2023-04-09T11:50:27;3.55;;;1.27;;
77105;SDS011;66057;54.718;18.426;2023-04-09T11:52:53;6.07;;;1.27;;
77105;SDS011;66057;54.718;18.426;2023-04-09T11:55:23;3.42;;;1.30;;
77105;SDS011;66057;54.718;18.426;2023-04-09T11:57:55;2.17;;;1.10;;
77105;SDS011;66057;54.718;18.426;2023-04-09T12:00:23;4.30;;;1.30;;
77105;SDS011;66057;54.718;18.426;2023-04-09T12:02:50;3.50;;;1.48;;
77105;SDS011;66057;54.718;18.426;2023-04-09T12:05:24;2.92;;;1.48;;
77105;SDS011;66057;54.718;18.426;2023-04-09T12:07:51;2.17;;;1.20;;
77105;SDS011;66057;54.718;18.426;2023-04-09T12:10:31;2.13;;;1.17;;
77105;SDS011;66057;54.718;18.426;2023-04-09T12:13:03;3.90;;;1.48;;
77105;SDS011;66057;54.718;18.426;2023-04-09T12:15:32;4.72;;;1.25;;
77105;SDS011;66057;54.718;18.426;2023-04-09T12:17:58;5.18;;;1.45;;
77105;SDS011;66057;54.718;18.426;2023-04-09T12:20:28;2.35;;;1.38;;
77105;SDS011;66057;54.718;18.426;2023-04-09T12:22:58;3.97;;;1.58;;
77105;SDS011;66057;54.718;18.426;2023-04-09T12:25:25;4.15;;;1.70;;
77105;SDS011;66057;54.718;18.426;2023-04-09T12:30:17;2.03;;;1.10;;
77105;SDS011;66057;54.718;18.426;2023-04-09T12:32:42;3.10;;;1.20;;
77105;SDS011;66057;54.718;18.426;2023-04-09T12:35:10;1.45;;;1.23;;
77105;SDS011;66057;54.718;18.426;2023-04-09T12:37:36;3.42;;;1.33;;
77105;SDS011;66057;54.718;18.426;2023-04-09T12:40:02;3.85;;;1.33;;
77105;SDS011;66057;54.718;18.426;2023-04-09T12:42:28;5.13;;;1.10;;
77105;SDS011;66057;54.718;18.426;2023-04-09T12:44:53;4.95;;;1.40;;
77105;SDS011;66057;54.718;18.426;2023-04-09T12:47:19;3.58;;;1.20;;
77105;SDS011;66057;54.718;18.426;2023-04-09T12:49:45;3.50;;;1.63;;
77105;SDS011;66057;54.718;18.426;2023-04-09T12:52:13;4.90;;;1.65;;
77105;SDS011;66057;54.718;18.426;2023-04-09T12:54:40;3.42;;;1.42;;
77105;SDS011;66057;54.718;18.426;2023-04-09T12:57:05;2.60;;;1.00;;
77105;SDS011;66057;54.718;18.426;2023-04-09T12:59:31;3.33;;;1.15;;
77105;SDS011;66057;54.718;18.426;2023-04-09T13:01:57;4.07;;;1.23;;
77105;SDS011;66057;54.718;18.426;2023-04-09T13:04:22;3.83;;;1.40;;
77105;SDS011;66057;54.718;18.426;2023-04-09T13:06:48;3.47;;;0.70;;
77105;SDS011;66057;54.718;18.426;2023-04-09T13:09:14;1.85;;;0.95;;
77105;SDS011;66057;54.718;18.426;2023-04-09T13:11:40;4.30;;;1.08;;
77105;SDS011;66057;54.718;18.426;2023-04-09T13:14:06;1.83;;;1.10;;
77105;SDS011;66057;54.718;18.426;2023-04-09T13:16:38;3.10;;;1.35;;
77105;SDS011;66057;54.718;18.426;2023-04-09T13:19:05;2.55;;;1.17;;
77105;SDS011;66057;54.718;18.426;2023-04-09T13:21:31;2.90;;;1.40;;
77105;SDS011;66057;54.718;18.426;2023-04-09T13:23:57;4.65;;;1.90;;
77105;SDS011;66057;54.718;18.426;2023-04-09T13:26:23;4.47;;;1.67;;
77105;SDS011;66057;54.718;18.426;2023-04-09T13:28:49;5.07;;;1.20;;
77105;SDS011;66057;54.718;18.426;2023-04-09T13:36:07;2.53;;;1.38;;
77105;SDS011;66057;54.718;18.426;2023-04-09T13:38:32;1.80;;;1.60;;
77105;SDS011;66057;54.718;18.426;2023-04-09T13:40:58;2.72;;;1.08;;
77105;SDS011;66057;54.718;18.426;2023-04-09T13:43:24;5.75;;;1.13;;
77105;SDS011;66057;54.718;18.426;2023-04-09T13:45:52;3.58;;;1.00;;
77105;SDS011;66057;54.718;18.426;2023-04-09T13:48:19;2.58;;;1.02;;
77105;SDS011;66057;54.718;18.426;2023-04-09T13:50:45;3.78;;;1.45;;
77105;SDS011;66057;54.718;18.426;2023-04-09T13:53:11;2.20;;;0.93;;
77105;SDS011;66057;54.718;18.426;2023-04-09T13:55:37;7.28;;;1.90;;
77105;SDS011;66057;54.718;18.426;2023-04-09T13:58:03;3.78;;;0.80;;
77105;SDS011;66057;54.718;18.426;2023-04-09T14:00:29;2.50;;;1.20;;
77105;SDS011;66057;54.718;18.426;2023-04-09T14:02:56;4.85;;;1.08;;
77105;SDS011;66057;54.718;18.426;2023-04-09T14:05:21;3.13;;;1.05;;
77105;SDS011;66057;54.718;18.426;2023-04-09T14:07:47;4.53;;;1.58;;
77105;SDS011;66057;54.718;18.426;2023-04-09T14:10:12;3.65;;;1.20;;
77105;SDS011;66057;54.718;18.426;2023-04-09T14:12:38;8.60;;;1.30;;
77105;SDS011;66057;54.718;18.426;2023-04-09T14:15:04;3.63;;;1.13;;
77105;SDS011;66057;54.718;18.426;2023-04-09T14:17:30;2.25;;;1.08;;
77105;SDS011;66057;54.718;18.426;2023-04-09T14:19:56;2.60;;;1.25;;
77105;SDS011;66057;54.718;18.426;2023-04-09T14:22:23;2.72;;;1.20;;
77105;SDS011;66057;54.718;18.426;2023-04-09T14:24:50;1.95;;;1.17;;
77105;SDS011;66057;54.718;18.426;2023-04-09T14:27:16;3.28;;;1.45;;
77105;SDS011;66057;54.718;18.426;2023-04-09T14:29:42;4.38;;;1.08;;
77105;SDS011;66057;54.718;18.426;2023-04-09T14:32:08;2.90;;;1.45;;
77105;SDS011;66057;54.718;18.426;2023-04-09T14:34:33;2.78;;;1.30;;
77105;SDS011;66057;54.718;18.426;2023-04-09T14:36:59;1.35;;;0.93;;
77105;SDS011;66057;54.718;18.426;2023-04-09T14:39:24;1.92;;;1.13;;
77105;SDS011;66057;54.718;18.426;2023-04-09T14:41:50;3.53;;;1.08;;
77105;SDS011;66057;54.718;18.426;2023-04-09T14:44:16;2.83;;;1.08;;
77105;SDS011;66057;54.718;18.426;2023-04-09T14:46:42;2.63;;;1.33;;
77105;SDS011;66057;54.718;18.426;2023-04-09T14:49:08;3.30;;;1.65;;
77105;SDS011;66057;54.718;18.426;2023-04-09T14:51:37;3.83;;;1.38;;
77105;SDS011;66057;54.718;18.426;2023-04-09T14:54:02;3.42;;;1.23;;
77105;SDS011;66057;54.718;18.426;2023-04-09T14:56:28;4.38;;;1.30;;
77105;SDS011;66057;54.718;18.426;2023-04-09T14:58:53;2.30;;;1.48;;
77105;SDS011;66057;54.718;18.426;2023-04-09T15:01:19;2.20;;;1.40;;